Time;durP1;ratioP1;P1;durP2;ratioP2;P2;SDS_P1;SDS_P2;PMS_P1;PMS_P2;Temp;Humidity;BMP_temperature;BMP_pressure;BME280_temperature;BME280_humidity;BME280_pressure;Samples;Min_cycle;Max_cycle;Signal;HPM_P1;HPM_P2
2022/08/10 00:02:35;;;;;;;;;6.00;5.50;;;;;24.24;41.73;102030.97;5087982;28;49871;-69
2022/08/10 00:05:01;;;;;;;;;4.75;4.75;;;;;24.17;42.21;102023.06;5086658;28;49989;-69
2022/08/10 00:07:26;;;;;;;;;5.75;5.75;;;;;23.76;42.10;101960.19;5086614;28;49532;-69
2022/08/10 00:09:51;;;;;;;;;5.75;5.75;;;;;24.16;42.05;102037.38;5087317;28;51718;-69
2022/08/10 00:12:18;;;;;;;;;3.00;3.00;;;;;24.17;42.22;102039.16;5087221;28;49607;-70
2022/08/10 00:14:44;;;;;;;;;5.50;4.50;;;;;23.88;42.15;101981.47;5086776;28;50186;-70
2022/08/10 00:17:09;;;;;;;;;5.50;5.50;;;;;24.20;42.14;102036.41;5087234;28;49588;-69
2022/08/10 00:19:34;;;;;;;;;3.75;3.75;;;;;24.18;42.28;102036.44;5086928;28;49667;-69
2022/08/10 00:22:00;;;;;;;;;7.75;5.75;;;;;24.05;42.42;102023.25;5087511;28;49402;-69
2022/08/10 00:24:25;;;;;;;;;6.00;4.00;;;;;23.97;42.29;102008.16;5087046;28;50209;-69
2022/08/10 00:26:50;;;;;;;;;6.75;4.00;;;;;24.06;42.60;102051.84;5087348;28;49589;-69
2022/08/10 00:29:16;;;;;;;;;4.75;4.75;;;;;23.98;42.90;102046.56;5086999;28;49657;-69
2022/08/10 00:31:41;;;;;;;;;5.50;4.00;;;;;23.82;42.71;102008.34;5087833;28;49379;-69
2022/08/10 00:34:06;;;;;;;;;5.25;5.00;;;;;23.52;42.57;101964.06;5086652;28;50305;-69
2022/08/10 00:36:32;;;;;;;;;6.25;5.50;;;;;23.78;42.68;102020.03;5085327;28;49576;-69
2022/08/10 00:38:57;;;;;;;;;5.00;5.00;;;;;23.89;42.75;102038.66;5088858;27;49359;-69
2022/08/10 00:41:22;;;;;;;;;4.75;4.00;;;;;23.62;42.69;101994.34;5087495;28;49455;-69
2022/08/10 00:43:47;;;;;;;;;4.25;3.25;;;;;23.77;42.87;102030.78;5085917;28;49720;-69
2022/08/10 00:46:13;;;;;;;;;7.50;6.00;;;;;23.76;42.82;102035.28;5086817;28;58541;-69
2022/08/10 00:48:38;;;;;;;;;5.00;4.75;;;;;23.65;42.79;102015.78;5087904;28;50064;-69
2022/08/10 00:51:04;;;;;;;;;5.25;4.25;;;;;23.46;42.96;101971.31;5087794;28;49868;-69
2022/08/10 00:53:29;;;;;;;;;6.00;6.00;;;;;23.65;42.79;102005.03;5086999;28;49983;-69
2022/08/10 00:55:55;;;;;;;;;6.50;6.00;;;;;23.16;43.06;101921.69;5086842;28;49596;-74
2022/08/10 00:58:20;;;;;;;;;7.00;5.50;;;;;23.78;42.64;102035.25;5086676;28;49482;-69
2022/08/10 01:00:47;;;;;;;;;6.00;5.50;;;;;23.51;43.17;101990.91;5086494;28;49569;-69
2022/08/10 01:03:13;;;;;;;;;8.00;6.75;;;;;23.17;42.79;101926.16;5086047;28;50295;-69
2022/08/10 01:06:00;;;;;;;;;5.75;4.75;;;;;23.62;43.01;102003.28;5086234;28;49573;-69
2022/08/10 01:08:35;;;;;;;;;5.00;5.00;;;;;23.72;42.89;102025.47;5085950;28;49724;-69
2022/08/10 01:11:09;;;;;;;;;6.00;6.00;;;;;23.68;43.16;102029.13;5086842;28;49723;-69
2022/08/10 01:13:42;;;;;;;;;5.00;5.00;;;;;23.72;43.00;102027.28;5086326;28;49952;-69
2022/08/10 01:16:18;;;;;;;;;6.50;6.00;;;;;23.72;43.04;102017.44;5067264;28;49262;-69
2022/08/10 01:19:03;;;;;;;;;5.25;5.25;;;;;23.62;43.04;102005.94;5086586;28;49674;-69
2022/08/10 01:22:03;;;;;;;;;4.75;4.75;;;;;23.59;43.43;102021.19;5086786;28;49585;-69
2022/08/10 01:24:47;;;;;;;;;7.00;6.00;;;;;23.53;43.16;102016.75;5085601;28;50164;-69
2022/08/10 01:27:24;;;;;;;;;6.00;6.00;;;;;23.46;43.48;102015.09;5086784;28;49659;-69
2022/08/10 01:29:55;;;;;;;;;5.50;5.00;;;;;23.44;43.47;102014.19;5086260;28;49577;-69
2022/08/10 01:32:34;;;;;;;;;5.25;4.75;;;;;23.39;43.71;102019.63;5086593;28;49541;-69
2022/08/10 01:35:18;;;;;;;;;5.50;5.25;;;;;23.33;43.98;102013.44;5085783;28;50064;-70
2022/08/10 01:37:56;;;;;;;;;4.50;4.50;;;;;23.23;44.10;102009.09;5085416;28;49315;-69
2022/08/10 01:40:25;;;;;;;;;5.75;5.25;;;;;23.26;44.10;102018.00;5086636;28;49751;-69
2022/08/10 01:42:54;;;;;;;;;7.50;5.75;;;;;23.18;44.18;102001.13;5086016;28;49540;-69
2022/08/10 01:45:24;;;;;;;;;4.00;4.00;;;;;23.18;44.45;102011.84;5085614;28;49479;-70
2022/08/10 01:50:43;;;;;;;;;6.00;5.50;;;;;23.06;44.50;101994.09;5085253;28;49800;-69
2022/08/10 01:53:14;;;;;;;;;6.50;6.50;;;;;23.03;44.45;101988.78;5067019;28;49588;-70
2022/08/10 01:55:41;;;;;;;;;7.25;7.25;;;;;23.05;44.74;101991.44;5084816;28;49547;-69
2022/08/10 01:58:10;;;;;;;;;5.75;5.75;;;;;23.08;44.78;102002.16;5060496;28;49531;-69
2022/08/10 02:00:38;;;;;;;;;6.50;6.50;;;;;23.14;44.60;102008.31;5079245;28;49409;-70
2022/08/10 02:03:07;;;;;;;;;5.00;5.00;;;;;23.18;44.70;101997.56;5086315;28;49678;-72
2022/08/10 02:05:36;;;;;;;;;6.25;4.75;;;;;23.06;44.41;101972.69;5079585;28;50279;-70
2022/08/10 02:08:04;;;;;;;;;8.00;7.00;;;;;23.16;44.50;102005.59;5079461;28;49508;-69
2022/08/10 02:10:32;;;;;;;;;6.75;6.75;;;;;23.03;44.71;101990.59;5085500;28;49562;-69
2022/08/10 02:12:59;;;;;;;;;5.00;5.00;;;;;23.12;44.82;101990.50;5085713;28;49435;-69
2022/08/10 02:15:30;;;;;;;;;6.50;6.50;;;;;23.06;44.71;101983.41;5085240;28;49894;-69
2022/08/10 02:17:59;;;;;;;;;6.00;6.00;;;;;23.03;44.93;101993.28;5076247;28;49591;-69
2022/08/10 02:20:32;;;;;;;;;4.50;4.50;;;;;23.12;44.76;102002.09;5085518;28;49436;-69
2022/08/10 02:23:04;;;;;;;;;6.00;6.00;;;;;22.75;44.96;101953.38;5085088;28;49685;-73
2022/08/10 02:25:31;;;;;;;;;7.00;7.00;;;;;23.03;44.79;101994.16;5084084;28;49794;-69
2022/08/10 02:27:58;;;;;;;;;5.75;5.75;;;;;22.97;45.07;101988.88;5085201;28;49843;-68
2022/08/10 02:30:26;;;;;;;;;4.75;4.75;;;;;23.09;45.04;102012.84;5084950;28;49472;-69
2022/08/10 02:32:54;;;;;;;;;8.75;5.75;;;;;23.03;45.02;101998.63;5085461;28;49859;-69
2022/08/10 02:35:20;;;;;;;;;5.00;5.00;;;;;22.99;45.04;101992.44;5084871;28;49679;-69
2022/08/10 02:37:47;;;;;;;;;6.50;5.00;;;;;22.97;45.01;102012.97;5085277;28;49617;-69
2022/08/10 02:40:13;;;;;;;;;7.25;7.25;;;;;22.98;45.22;102012.06;5085692;28;49299;-69
2022/08/10 02:42:56;;;;;;;;;8.50;8.50;;;;;22.98;45.29;102009.41;5085400;28;49728;-69
2022/08/10 02:45:27;;;;;;;;;6.50;6.50;;;;;22.93;45.42;102005.88;5084780;28;49911;-69
2022/08/10 02:48:22;;;;;;;;;7.00;6.50;;;;;22.76;45.59;101994.41;5085267;28;49529;-71
2022/08/10 02:50:55;;;;;;;;;8.50;7.25;;;;;22.80;45.67;102007.75;5083132;28;49524;-71
2022/08/10 02:53:48;;;;;;;;;6.00;6.00;;;;;22.81;45.76;102017.56;5067179;28;49724;-70
2022/08/10 02:56:38;;;;;;;;;6.25;6.25;;;;;22.80;45.78;102007.75;5083178;28;50645;-69
2022/08/10 02:59:14;;;;;;;;;5.25;5.25;;;;;22.62;45.78;101982.97;5075345;28;49627;-69
2022/08/10 03:01:43;;;;;;;;;6.25;6.25;;;;;22.70;45.90;101998.06;5079770;28;49797;-69
2022/08/10 03:04:26;;;;;;;;;5.75;5.75;;;;;22.77;45.93;102020.28;5082049;28;49716;-69
2022/08/10 03:06:59;;;;;;;;;6.25;5.25;;;;;22.78;45.76;102022.06;5086938;28;49621;-69
2022/08/10 03:09:27;;;;;;;;;6.00;6.00;;;;;22.76;46.06;102011.34;5086509;28;50328;-69
2022/08/10 03:11:55;;;;;;;;;6.25;5.50;;;;;22.66;46.31;102000.75;5088727;28;49622;-69
2022/08/10 03:14:22;;;;;;;;;5.00;5.00;;;;;22.69;46.14;102009.66;5087864;28;49524;-69
2022/08/10 03:16:50;;;;;;;;;7.50;6.75;;;;;22.67;46.06;102011.44;5088524;28;49921;-71
2022/08/10 03:19:19;;;;;;;;;6.25;6.25;;;;;22.27;46.17;101954.72;5068748;28;49915;-71
2022/08/10 03:21:45;;;;;;;;;5.50;5.50;;;;;22.54;46.52;102001.75;5089026;28;49758;-71
2022/08/10 03:24:11;;;;;;;;;7.00;6.50;;;;;22.30;46.43;101972.56;5088269;28;49241;-71
2022/08/10 03:26:37;;;;;;;;;5.75;5.75;;;;;22.55;46.55;102008.88;5087967;28;49421;-71
2022/08/10 03:29:04;;;;;;;;;7.25;6.00;;;;;22.50;46.72;101995.56;5069201;28;49608;-71
2022/08/10 03:31:31;;;;;;;;;8.50;7.50;;;;;22.53;46.86;101998.19;5087862;28;49499;-71
2022/08/10 03:34:02;;;;;;;;;8.00;8.00;;;;;22.50;46.86;102000.03;5088059;28;49740;-71
2022/08/10 03:36:27;;;;;;;;;8.00;7.00;;;;;22.45;46.65;101999.16;5087971;28;50005;-70
2022/08/10 03:38:53;;;;;;;;;7.00;7.00;;;;;22.40;46.85;101993.88;5088340;28;49210;-71
2022/08/10 03:41:25;;;;;;;;;7.50;7.25;;;;;22.26;46.91;101985.06;5086518;28;49483;-70
2022/08/10 03:43:52;;;;;;;;;5.50;5.50;;;;;22.41;47.10;102013.47;5087929;28;49222;-70
2022/08/10 03:46:22;;;;;;;;;5.25;5.25;;;;;22.25;47.18;101980.59;5087805;28;49743;-70
2022/08/10 03:48:55;;;;;;;;;6.50;6.50;;;;;22.40;46.96;102009.94;5087131;28;49254;-70
2022/08/10 03:51:21;;;;;;;;;7.25;6.75;;;;;22.24;47.21;101985.06;5087344;28;49402;-70
2022/08/10 03:53:48;;;;;;;;;7.25;6.25;;;;;22.22;47.16;101989.56;5087486;28;49463;-71
2022/08/10 03:56:15;;;;;;;;;5.25;5.25;;;;;22.32;47.17;102001.06;5087825;28;49413;-71
2022/08/10 03:58:40;;;;;;;;;7.25;6.50;;;;;22.30;47.35;102010.91;5087368;28;49453;-71
2022/08/10 04:01:06;;;;;;;;;10.00;8.75;;;;;22.27;47.23;102003.75;5087474;28;49854;-71
2022/08/10 04:03:31;;;;;;;;;7.50;7.50;;;;;22.25;47.25;102010.03;5084478;28;49852;-71
2022/08/10 04:05:57;;;;;;;;;6.75;6.75;;;;;22.18;47.52;102003.84;5087398;28;54521;-70
2022/08/10 04:08:22;;;;;;;;;8.25;8.25;;;;;22.15;47.53;102001.19;5087017;28;49562;-70
2022/08/10 04:10:48;;;;;;;;;8.75;7.50;;;;;22.06;47.64;102001.22;5087486;28;49726;-71
2022/08/10 04:13:13;;;;;;;;;6.50;6.50;;;;;22.16;47.91;102012.78;5086868;27;49428;-70
2022/08/10 04:15:38;;;;;;;;;9.25;8.00;;;;;22.15;47.74;102011.00;5087335;28;49417;-70
2022/08/10 04:18:03;;;;;;;;;8.00;5.75;;;;;21.92;47.56;101969.25;5083145;28;49653;-71
2022/08/10 04:20:39;;;;;;;;;8.25;7.00;;;;;22.16;47.88;102008.31;5087397;28;49737;-71
2022/08/10 04:23:13;;;;;;;;;7.00;7.00;;;;;22.11;47.89;102012.81;5087536;28;50145;-71
2022/08/10 04:25:39;;;;;;;;;7.00;7.00;;;;;22.00;48.01;101993.22;5085925;28;49743;-71
2022/08/10 04:28:07;;;;;;;;;11.25;10.25;;;;;22.00;47.84;102006.59;5083444;28;49698;-71
2022/08/10 04:30:35;;;;;;;;;8.25;8.25;;;;;21.57;48.17;101925.81;5086959;28;49776;-70
2022/08/10 04:33:02;;;;;;;;;8.75;7.25;;;;;21.93;48.02;101995.06;5086299;28;49432;-70
2022/08/10 04:35:29;;;;;;;;;9.00;8.00;;;;;22.04;48.24;102012.84;5086426;28;49567;-70
2022/08/10 04:37:55;;;;;;;;;7.00;5.25;;;;;22.02;48.44;102006.63;5086358;28;49432;-77
2022/08/10 04:40:22;;;;;;;;;7.75;7.75;;;;;22.00;48.65;102011.94;5085126;28;49588;-70
2022/08/10 04:42:47;;;;;;;;;7.25;6.00;;;;;21.82;48.85;101988.03;5083828;28;49689;-72
2022/08/10 04:45:14;;;;;;;;;10.75;8.25;;;;;21.52;48.90;101951.66;5086450;28;50129;-71
2022/08/10 04:47:39;;;;;;;;;8.50;7.00;;;;;21.94;48.78;102023.59;5083540;28;49701;-76
2022/08/10 04:50:05;;;;;;;;;8.75;8.00;;;;;21.75;49.00;101983.63;5085494;28;50087;-70
2022/08/10 04:52:31;;;;;;;;;5.50;5.50;;;;;21.88;49.26;102014.72;5086914;28;49602;-70
2022/08/10 04:54:56;;;;;;;;;7.00;7.00;;;;;21.92;49.49;102030.75;5086594;28;50272;-70
2022/08/10 04:57:21;;;;;;;;;5.25;5.25;;;;;21.91;49.40;102028.97;5086270;28;58540;-71
2022/08/10 04:59:47;;;;;;;;;10.00;6.50;;;;;21.91;49.48;102033.44;5086143;28;49211;-70
2022/08/10 05:02:13;;;;;;;;;6.25;6.25;;;;;21.87;49.93;102028.97;5086563;28;49533;-70
2022/08/10 05:04:38;;;;;;;;;6.50;6.50;;;;;21.87;49.82;102037.00;5086192;28;49969;-70
2022/08/10 05:07:12;;;;;;;;;4.50;4.50;;;;;21.87;49.81;102031.66;5086177;28;65213;-72
2022/08/10 05:09:38;;;;;;;;;7.75;7.75;;;;;21.70;49.87;102005.88;5086677;28;49589;-71
2022/08/10 05:12:04;;;;;;;;;6.00;6.00;;;;;21.69;50.28;101993.44;5087164;28;50037;-73
2022/08/10 05:14:29;;;;;;;;;6.50;6.50;;;;;21.82;50.23;102028.13;5085108;28;49826;-69
2022/08/10 05:16:55;;;;;;;;;6.00;6.00;;;;;21.43;50.28;101960.63;5086427;28;49368;-68
2022/08/10 05:19:20;;;;;;;;;7.75;6.50;;;;;21.91;50.49;102031.63;5087071;28;59587;-68
2022/08/10 05:21:45;;;;;;;;;7.25;6.25;;;;;21.87;50.63;102032.53;5085772;28;49454;-68
2022/08/10 05:24:10;;;;;;;;;6.50;6.00;;;;;21.89;50.68;102036.06;5084688;27;64936;-68
2022/08/10 05:26:36;;;;;;;;;6.00;6.00;;;;;21.77;50.81;102017.44;5085836;28;49266;-68
2022/08/10 05:29:01;;;;;;;;;8.00;8.00;;;;;21.75;50.74;102010.34;5085531;28;49234;-69
2022/08/10 05:31:27;;;;;;;;;7.25;7.25;;;;;21.91;51.33;102036.09;5085579;28;49750;-69
2022/08/10 05:33:52;;;;;;;;;7.75;7.75;;;;;21.90;51.34;102040.53;5068446;28;51461;-68
2022/08/10 05:36:18;;;;;;;;;8.00;7.00;;;;;21.91;51.50;102052.13;5087157;27;49639;-69
2022/08/10 05:38:44;;;;;;;;;6.75;5.75;;;;;21.77;51.57;102016.56;5090724;27;49433;-68
2022/08/10 05:41:09;;;;;;;;;7.25;7.25;;;;;21.89;51.68;102037.88;5088116;27;49402;-68
2022/08/10 05:43:35;;;;;;;;;8.75;8.50;;;;;21.87;52.13;102035.22;5095752;27;49751;-66
2022/08/10 05:46:01;;;;;;;;;6.50;6.50;;;;;21.93;51.87;102056.56;5086724;28;49257;-68
2022/08/10 05:48:26;;;;;;;;;8.50;8.00;;;;;21.91;51.84;102050.34;5093648;27;49531;-69
2022/08/10 05:50:51;;;;;;;;;6.00;6.00;;;;;21.97;51.60;102039.59;5086315;28;49630;-70
2022/08/10 05:53:17;;;;;;;;;22.25;13.50;;;;;22.03;51.42;102043.16;5081866;28;50040;-70
2022/08/10 05:55:42;;;;;;;;;7.50;7.50;;;;;22.05;51.38;102042.22;5084476;28;49680;-68
2022/08/10 05:58:08;;;;;;;;;3.50;2.75;;;;;22.08;51.49;102042.25;5082963;28;49650;-70
2022/08/10 06:00:36;;;;;;;;;7.75;7.00;;;;;22.12;51.08;102044.00;5086240;28;49326;-69
2022/08/10 06:03:05;;;;;;;;;7.00;7.00;;;;;22.16;51.44;102043.09;5086518;28;49528;-70
2022/08/10 06:05:35;;;;;;;;;9.75;8.75;;;;;22.04;51.28;102012.84;5085726;28;49315;-70
2022/08/10 06:08:18;;;;;;;;;9.50;8.00;;;;;22.10;50.79;102032.44;5085122;28;49671;-68
2022/08/10 06:10:45;;;;;;;;;8.75;7.00;;;;;22.10;49.33;102024.41;5085960;28;49397;-72
2022/08/10 06:16:18;;;;;;;;;12.25;12.00;;;;;22.23;48.54;102046.63;5008597;28;49622;-70
2022/08/10 06:18:44;;;;;;;;;11.50;10.75;;;;;22.21;48.57;102051.97;5016531;28;49643;-70
2022/08/10 06:21:10;;;;;;;;;15.00;12.25;;;;;22.32;48.39;102051.00;5040553;27;49990;-69
2022/08/10 06:23:37;;;;;;;;;9.50;9.50;;;;;22.23;48.39;102028.78;5087297;28;49404;-76
2022/08/10 06:26:03;;;;;;;;;11.25;10.00;;;;;22.13;47.85;102005.66;5086797;28;49652;-77
2022/08/10 06:28:33;;;;;;;;;10.25;8.75;;;;;22.45;47.61;102052.69;5087560;27;49859;-69
2022/08/10 06:31:01;;;;;;;;;7.25;6.50;;;;;22.54;47.41;102049.94;5068550;28;49862;-70
2022/08/10 06:33:30;;;;;;;;;9.75;8.00;;;;;22.03;47.25;101947.78;5068817;28;50742;-69
2022/08/10 06:35:57;;;;;;;;;12.50;10.00;;;;;22.72;46.88;102054.25;5069761;28;50181;-71
2022/08/10 06:38:25;;;;;;;;;11.50;9.00;;;;;22.79;46.76;102056.84;5055127;28;49783;-71
2022/08/10 06:40:55;;;;;;;;;9.00;9.00;;;;;22.82;46.70;102048.78;5072566;28;49852;-71
2022/08/10 06:43:23;;;;;;;;;10.25;9.00;;;;;22.84;46.64;102057.72;5072824;28;49988;-72
2022/08/10 06:46:00;;;;;;;;;9.00;7.25;;;;;22.88;46.31;102052.34;5073128;28;49934;-71
2022/08/10 06:48:32;;;;;;;;;8.00;8.00;;;;;22.90;46.12;102051.44;5073011;28;49720;-70
2022/08/10 06:51:05;;;;;;;;;10.25;7.50;;;;;22.73;46.26;102013.19;5073492;28;49865;-71
2022/08/10 06:53:35;;;;;;;;;8.00;8.00;;;;;22.91;45.90;102036.25;5073054;28;50709;-70
2022/08/10 06:56:10;;;;;;;;;10.25;9.00;;;;;22.98;46.10;102043.34;5073077;28;49783;-71
2022/08/10 06:58:44;;;;;;;;;12.75;10.25;;;;;23.05;46.07;102048.59;5072687;28;50093;-70
2022/08/10 07:01:13;;;;;;;;;12.75;12.75;;;;;23.13;45.91;102059.22;5073149;28;49566;-70
2022/08/10 07:03:46;;;;;;;;;9.25;9.25;;;;;22.99;45.68;102018.31;5072616;28;49719;-70
2022/08/10 07:06:14;;;;;;;;;10.00;8.50;;;;;23.25;45.63;102056.41;5073086;28;49630;-71
2022/08/10 07:08:41;;;;;;;;;7.00;7.00;;;;;23.16;45.44;102032.38;5072994;28;49749;-71
2022/08/10 07:11:08;;;;;;;;;5.00;4.00;;;;;23.34;45.22;102060.78;5073181;28;49958;-70
2022/08/10 07:13:36;;;;;;;;;12.50;9.75;;;;;23.34;45.10;102060.78;5072575;28;49855;-70
2022/08/10 07:16:02;;;;;;;;;13.50;10.75;;;;;23.27;44.92;102051.06;5072358;28;49808;-70
2022/08/10 07:18:30;;;;;;;;;8.75;8.75;;;;;23.30;45.30;102051.00;5072568;28;49836;-69
2022/08/10 07:20:57;;;;;;;;;12.00;10.50;;;;;23.39;44.94;102065.19;5072833;28;49846;-70
2022/08/10 07:23:25;;;;;;;;;14.25;9.00;;;;;23.42;45.15;102065.13;5072616;28;50577;-70
2022/08/10 07:25:52;;;;;;;;;14.25;8.50;;;;;23.46;45.00;102067.81;5054166;28;49728;-70
2022/08/10 07:28:20;;;;;;;;;12.25;10.00;;;;;23.48;45.24;102056.16;5072330;28;49952;-70
2022/08/10 07:30:46;;;;;;;;;9.50;8.50;;;;;23.28;45.00;102024.25;5072610;28;49944;-69
2022/08/10 07:33:15;;;;;;;;;11.00;9.25;;;;;23.51;45.06;102056.09;5070723;28;51540;-71
2022/08/10 07:35:42;;;;;;;;;14.75;11.00;;;;;23.52;44.94;102051.63;5072497;28;49822;-70
2022/08/10 07:38:11;;;;;;;;;14.50;12.75;;;;;23.59;45.22;102056.94;5072173;28;49831;-71
2022/08/10 07:40:40;;;;;;;;;9.25;9.25;;;;;23.64;44.99;102057.78;5072387;28;49880;-70
2022/08/10 07:43:07;;;;;;;;;10.50;8.00;;;;;23.69;45.04;102055.03;5071980;28;50354;-70
2022/08/10 07:45:34;;;;;;;;;12.25;9.00;;;;;23.76;44.53;102058.53;5072126;28;50058;-69
2022/08/10 07:48:08;;;;;;;;;7.25;7.25;;;;;23.80;44.63;102062.91;5071355;28;49805;-70
2022/08/10 07:50:37;;;;;;;;;9.25;8.50;;;;;23.78;44.24;102057.59;5072427;28;49836;-70
2022/08/10 07:53:05;;;;;;;;;8.00;8.00;;;;;23.74;44.36;102052.25;5072059;28;50980;-70
2022/08/10 07:55:32;;;;;;;;;7.50;7.50;;;;;23.91;44.47;102063.66;5071891;28;50135;-69
2022/08/10 07:57:59;;;;;;;;;8.00;7.75;;;;;23.97;44.35;102066.25;5071791;28;50047;-70
2022/08/10 08:00:28;;;;;;;;;10.75;8.00;;;;;23.95;44.22;102066.28;5072225;28;50038;-70
2022/08/10 08:02:55;;;;;;;;;10.00;10.00;;;;;23.91;44.47;102051.13;5071866;28;50713;-70
2022/08/10 08:05:24;;;;;;;;;10.75;8.50;;;;;24.08;43.79;102075.03;5072124;28;49692;-70
2022/08/10 08:07:52;;;;;;;;;10.25;10.00;;;;;24.05;43.81;102058.13;5071920;28;49827;-69
2022/08/10 08:10:20;;;;;;;;;9.00;9.00;;;;;24.15;43.71;102074.06;5072023;28;50135;-69
2022/08/10 08:12:46;;;;;;;;;9.50;6.25;;;;;24.15;43.51;102071.38;5071551;28;49710;-69
2022/08/10 08:15:15;;;;;;;;;10.75;8.25;;;;;24.26;43.83;102065.84;5071197;28;49813;-69
2022/08/10 08:17:41;;;;;;;;;7.50;7.50;;;;;24.26;43.24;102052.41;5071878;28;50173;-69
2022/08/10 08:20:08;;;;;;;;;8.75;7.75;;;;;24.41;43.45;102049.50;5053917;28;50026;-69
2022/08/10 08:22:36;;;;;;;;;11.00;10.75;;;;;24.35;43.01;102027.28;5071607;28;50524;-71
2022/08/10 08:25:02;;;;;;;;;10.25;8.75;;;;;24.40;42.68;102025.38;5053064;28;49050;-71
2022/08/10 08:27:28;;;;;;;;;9.25;9.00;;;;;24.61;42.50;102043.84;5071446;28;49925;-70
2022/08/10 08:29:54;;;;;;;;;9.25;9.25;;;;;24.66;42.08;102041.94;5071628;28;50038;-70
2022/08/10 08:32:23;;;;;;;;;9.75;9.25;;;;;24.69;42.06;102041.00;5071368;28;50454;-71
2022/08/10 08:34:53;;;;;;;;;9.00;8.50;;;;;24.77;42.09;102041.75;5071522;28;49832;-71
2022/08/10 08:37:21;;;;;;;;;11.75;10.25;;;;;24.73;42.41;102007.81;5071385;28;49858;-71
2022/08/10 08:39:47;;;;;;;;;11.75;9.75;;;;;24.91;41.90;102037.03;5071603;28;49902;-71
2022/08/10 08:42:34;;;;;;;;;13.50;12.00;;;;;24.94;41.59;102036.09;5071342;28;49784;-71
2022/08/10 08:45:37;;;;;;;;;12.00;9.00;;;;;24.98;41.75;102040.47;5071120;28;49859;-71
2022/08/10 08:48:29;;;;;;;;;12.75;10.50;;;;;25.04;41.73;102038.59;5071086;28;49861;-70
2022/08/10 08:51:01;;;;;;;;;12.75;11.25;;;;;25.07;41.68;102035.84;5071327;28;49649;-71
2022/08/10 08:53:56;;;;;;;;;11.00;9.75;;;;;25.13;41.22;102034.84;5065146;28;50893;-70
2022/08/10 08:56:30;;;;;;;;;8.25;8.00;;;;;25.06;41.36;102012.56;5071186;28;49785;-71
2022/08/10 08:59:17;;;;;;;;;10.00;8.25;;;;;25.04;41.03;102006.34;5070914;28;49852;-70
2022/08/10 09:01:57;;;;;;;;;9.25;8.75;;;;;25.29;41.21;102025.56;5071339;28;49815;-70
2022/08/10 09:04:53;;;;;;;;;9.50;8.25;;;;;25.31;40.60;102030.91;5070987;28;49720;-69
2022/08/10 09:07:50;;;;;;;;;7.75;7.75;;;;;25.43;40.62;102025.28;5070754;28;49633;-70
2022/08/10 09:10:23;;;;;;;;;12.75;12.00;;;;;25.49;40.79;102022.47;5071064;28;49786;-69
2022/08/10 09:12:51;;;;;;;;;10.00;9.00;;;;;25.56;39.99;102025.91;5070921;28;49994;-69
2022/08/10 09:15:26;;;;;;;;;11.25;10.50;;;;;25.48;39.67;102001.88;5070715;28;50385;-71
2022/08/10 09:18:27;;;;;;;;;13.50;13.00;;;;;25.71;40.14;102017.53;5052675;28;49617;-70
2022/08/10 09:20:59;;;;;;;;;11.25;10.25;;;;;25.74;40.14;102004.00;5056097;28;50166;-70
2022/08/10 09:23:34;;;;;;;;;10.25;9.75;;;;;25.84;39.81;102013.66;5070964;28;49991;-70
2022/08/10 09:26:18;;;;;;;;;8.00;8.00;;;;;25.95;39.75;102010.69;5070593;28;49829;-70
2022/08/10 09:28:44;;;;;;;;;11.75;9.25;;;;;26.00;39.08;102008.81;5062341;28;50098;-70
2022/08/10 09:31:12;;;;;;;;;9.25;9.25;;;;;26.03;39.48;102002.47;5063794;28;50636;-69
2022/08/10 09:34:06;;;;;;;;;11.25;9.50;;;;;26.09;39.27;102011.28;5052599;28;50223;-70
2022/08/10 09:37:02;;;;;;;;;11.25;11.25;;;;;26.14;39.15;102001.28;5070655;28;50583;-71
2022/08/10 09:39:45;;;;;;;;;10.50;9.75;;;;;26.24;38.58;101994.72;5070569;28;49904;-69
2022/08/10 09:42:24;;;;;;;;;11.00;9.75;;;;;26.34;38.35;102000.78;5070445;28;49845;-69
2022/08/10 09:45:14;;;;;;;;;11.00;8.50;;;;;26.38;38.69;101991.75;5052043;28;49977;-70
2022/08/10 09:48:08;;;;;;;;;13.50;10.00;;;;;26.46;38.23;101996.94;5070284;28;50441;-69
2022/08/10 09:50:41;;;;;;;;;15.75;12.00;;;;;26.54;38.37;102000.34;5067729;28;49758;-69
2022/08/10 09:53:25;;;;;;;;;13.25;11.00;;;;;26.63;37.68;101993.78;5070470;28;49787;-70
2022/08/10 09:56:17;;;;;;;;;9.75;9.75;;;;;26.72;38.14;101990.84;5070669;28;49646;-70
2022/08/10 09:58:53;;;;;;;;;10.25;7.00;;;;;26.74;37.69;101972.88;5069976;28;49716;-70
2022/08/10 10:01:45;;;;;;;;;10.00;9.75;;;;;26.86;37.32;101986.00;5068375;28;49688;-69
2022/08/10 10:04:21;;;;;;;;;8.75;8.75;;;;;26.92;37.38;101985.78;5067875;28;50197;-70
2022/08/10 10:07:05;;;;;;;;;39.75;35.75;;;;;26.96;36.74;101986.63;5070358;28;49902;-69
2022/08/10 10:09:38;;;;;;;;;26.00;25.75;;;;;26.80;36.92;101949.31;5069907;28;50426;-69
2022/08/10 10:12:18;;;;;;;;;13.75;13.75;;;;;27.06;37.20;101972.88;5072879;28;49661;-70
2022/08/10 10:18:03;;;;;;;;;19.50;19.50;;;;;27.26;36.48;101963.31;5070131;28;49949;-70
2022/08/10 10:20:38;;;;;;;;;11.00;11.00;;;;;27.36;35.35;101967.50;5073336;28;50124;-70
2022/08/10 10:23:13;;;;;;;;;8.75;8.75;;;;;27.47;35.00;101957.28;5073610;28;49744;-71
2022/08/10 10:25:46;;;;;;;;;10.50;9.75;;;;;27.60;34.83;101955.06;5073409;28;49768;-70
2022/08/10 10:28:34;;;;;;;;;8.00;8.00;;;;;27.63;35.07;101955.88;5073555;28;49895;-70
2022/08/10 10:31:26;;;;;;;;;11.50;11.50;;;;;27.49;34.82;101924.84;5073342;28;49667;-70
2022/08/10 10:34:20;;;;;;;;;11.00;9.50;;;;;27.77;34.09;101947.38;5046546;28;49952;-71
2022/08/10 10:36:47;;;;;;;;;13.75;13.00;;;;;27.74;34.61;101914.22;5073481;28;49928;-71
2022/08/10 10:39:17;;;;;;;;;11.25;10.50;;;;;27.85;34.05;101928.22;5073517;28;50031;-70
2022/08/10 10:42:05;;;;;;;;;10.75;10.75;;;;;27.86;33.45;101908.41;5073022;28;49824;-71
2022/08/10 10:45:03;;;;;;;;;9.25;9.25;;;;;28.19;33.25;101942.38;5067689;28;49970;-70
2022/08/10 10:47:48;;;;;;;;;8.25;8.25;;;;;28.40;33.22;101935.38;5073255;28;49845;-71
2022/08/10 10:50:25;;;;;;;;;15.25;10.25;;;;;28.41;33.47;101917.38;5067774;28;49889;-70
2022/08/10 10:53:17;;;;;;;;;10.25;10.25;;;;;28.50;32.88;101934.13;5073090;28;49857;-69
2022/08/10 10:55:52;;;;;;;;;11.75;11.25;;;;;28.51;32.55;101922.38;5072962;28;50030;-70
2022/08/10 10:58:24;;;;;;;;;14.25;10.25;;;;;28.50;33.31;101911.63;5072787;28;49848;-71
2022/08/10 11:01:01;;;;;;;;;8.00;8.00;;;;;28.62;32.76;101915.72;5073188;28;49790;-70
2022/08/10 11:03:57;;;;;;;;;9.75;9.75;;;;;28.64;32.26;101912.00;5072937;28;50062;-71
2022/08/10 11:06:53;;;;;;;;;10.75;10.00;;;;;28.60;32.44;101890.56;5072924;28;49827;-70
2022/08/10 11:09:30;;;;;;;;;8.50;8.25;;;;;28.66;30.96;101890.34;5068479;28;49802;-71
2022/08/10 11:11:59;;;;;;;;;8.00;7.50;;;;;28.65;29.94;101875.06;5072717;28;49762;-70
2022/08/10 11:14:47;;;;;;;;;7.50;7.50;;;;;28.82;29.94;101907.75;5072166;28;50265;-71
2022/08/10 11:17:33;;;;;;;;;10.50;9.00;;;;;28.76;30.45;101891.78;5072563;28;49833;-70
2022/08/10 11:20:07;;;;;;;;;9.00;8.75;;;;;28.93;29.80;101900.16;5071070;28;49814;-69
2022/08/10 11:22:53;;;;;;;;;8.00;8.00;;;;;29.00;29.84;101896.28;5071771;28;49786;-71
2022/08/10 11:25:24;;;;;;;;;8.75;8.75;;;;;29.05;29.14;101890.72;5053980;28;51545;-71
2022/08/10 11:28:27;;;;;;;;;10.00;9.75;;;;;29.13;29.19;101890.41;5072099;28;49882;-71
2022/08/10 11:31:03;;;;;;;;;8.25;8.25;;;;;29.22;29.19;101888.22;5072545;28;49865;-69
2022/08/10 11:33:50;;;;;;;;;10.00;9.75;;;;;29.29;29.06;101880.75;5072500;28;49797;-70
2022/08/10 11:36:26;;;;;;;;;11.75;10.00;;;;;29.15;28.45;101850.69;5072071;28;49841;-71
2022/08/10 11:39:30;;;;;;;;;20.75;13.50;;;;;29.39;27.91;101874.03;5072523;28;49629;-71
2022/08/10 11:42:06;;;;;;;;;12.75;12.75;;;;;29.46;28.08;101861.16;5072414;28;49672;-70
2022/08/10 11:44:55;;;;;;;;;14.25;11.25;;;;;29.49;28.36;101847.53;5072245;28;49839;-72
2022/08/10 11:47:26;;;;;;;;;17.50;12.00;;;;;29.64;27.68;101868.56;5072137;28;50794;-71
2022/08/10 11:49:57;;;;;;;;;10.50;8.75;;;;;29.74;27.39;101866.34;5072040;28;50246;-70
2022/08/10 11:52:35;;;;;;;;;8.00;8.00;;;;;29.66;27.20;101828.78;5072184;28;49894;-71
2022/08/10 11:55:21;;;;;;;;;13.25;9.75;;;;;29.77;27.48;101834.59;5072255;28;49970;-71